Time;durP1;ratioP1;P1;durP2;ratioP2;P2;SDS_P1;SDS_P2;PMS_P1;PMS_P2;Temp;Humidity;BMP_temperature;BMP_pressure;BME280_temperature;BME280_humidity;BME280_pressure;Samples;Min_cycle;Max_cycle;Signal;HPM_P1;HPM_P2
2021/11/17 02:28:28;;;;;;;;;53.00;39.00;;;;;11.54;68.86;102043.63;5060857;27;46001;-95
2021/11/17 02:31:00;;;;;;;;;55.75;42.00;;;;;11.55;69.07;102039.22;5065097;28;45325;-89
2021/11/17 02:33:54;;;;;;;;;51.75;39.75;;;;;11.55;68.97;102031.31;5095566;27;45400;-90
2021/11/17 02:36:35;;;;;;;;;51.25;39.25;;;;;11.55;69.00;102018.16;5082097;27;46214;-91
2021/11/17 02:39:25;;;;;;;;;48.25;35.50;;;;;11.56;68.93;102015.47;5100831;27;45917;-93
2021/11/17 02:42:32;;;;;;;;;50.00;38.50;;;;;11.57;69.30;102004.06;5067737;28;45281;-92
2021/11/17 02:45:27;;;;;;;;;57.50;42.25;;;;;11.57;69.27;102005.84;5069443;27;45620;-90
2021/11/17 02:48:24;;;;;;;;;61.50;44.75;;;;;11.56;68.88;102002.31;5083108;27;46292;-90
2021/11/17 02:50:58;;;;;;;;;54.00;39.75;;;;;11.58;69.16;101997.06;5064945;27;46151;-89
2021/11/17 02:53:42;;;;;;;;;56.00;42.50;;;;;11.57;68.93;101985.63;5095792;27;45333;-88
2021/11/17 02:56:39;;;;;;;;;56.00;42.50;;;;;11.56;69.19;101985.66;5086145;27;46963;-87
2021/11/17 02:59:11;;;;;;;;;57.00;41.75;;;;;11.53;69.01;101996.25;5100009;27;45363;-87
2021/11/17 03:01:42;;;;;;;;;57.50;42.25;;;;;11.54;68.94;102012.00;5097407;27;45383;-86
2021/11/17 03:04:26;;;;;;;;;57.75;42.50;;;;;11.53;68.91;102019.94;5099559;27;45510;-86
2021/11/17 03:07:01;;;;;;;;;61.75;44.00;;;;;11.53;69.00;102023.44;5089049;27;46384;-85
2021/11/17 03:09:51;;;;;;;;;59.00;41.25;;;;;11.53;69.23;102022.59;5093514;27;45427;-87
2021/11/17 03:12:49;;;;;;;;;58.75;40.00;;;;;11.53;69.29;102027.84;5095761;27;45295;-87
2021/11/17 03:15:54;;;;;;;;;55.25;42.00;;;;;11.54;69.03;102032.19;5086978;27;45435;-91
2021/11/17 03:18:36;;;;;;;;;56.50;41.50;;;;;11.55;69.38;102033.97;5063315;27;45684;-89
2021/11/17 03:21:26;;;;;;;;;58.00;45.25;;;;;11.55;69.44;102041.84;5095588;27;45625;-90
2021/11/17 03:24:07;;;;;;;;;61.00;45.50;;;;;11.55;69.38;102042.72;5090515;27;45461;-91
2021/11/17 03:26:41;;;;;;;;;58.00;43.50;;;;;11.56;69.46;102048.84;5099709;27;45470;-94
2021/11/17 03:29:09;;;;;;;;;62.25;42.00;;;;;11.56;69.33;102044.44;5100483;27;46565;-96
2021/11/17 03:32:03;;;;;;;;;57.75;41.75;;;;;11.55;69.25;102055.03;5100448;27;48651;-93
2021/11/17 03:34:46;;;;;;;;;57.75;43.75;;;;;11.55;69.19;102060.28;5095594;27;45450;-91
2021/11/17 03:37:18;;;;;;;;;58.00;43.25;;;;;11.57;69.25;102063.75;5089153;27;45660;-91
2021/11/17 03:39:43;;;;;;;;;56.75;43.00;;;;;11.58;69.38;102065.50;5111770;27;46260;-94
2021/11/17 03:42:16;;;;;;;;;57.00;41.25;;;;;11.57;69.45;102066.41;5099801;27;48090;-94
2021/11/17 03:44:47;;;;;;;;;62.00;45.25;;;;;11.57;69.36;102079.56;5080396;27;45353;-93
2021/11/17 03:47:34;;;;;;;;;55.00;39.75;;;;;11.57;69.21;102082.19;5123879;27;45452;-93
2021/11/17 03:50:23;;;;;;;;;58.25;42.75;;;;;11.57;69.45;102079.56;5071235;27;46054;-94
2021/11/17 03:53:18;;;;;;;;;59.00;43.00;;;;;11.57;69.44;102074.28;5061783;27;48348;-92
2021/11/17 03:56:25;;;;;;;;;55.50;42.75;;;;;11.60;69.16;102082.16;5090880;27;45833;-94
2021/11/17 03:58:53;;;;;;;;;59.75;45.50;;;;;11.61;69.19;102086.50;5075059;27;45428;-90
2021/11/17 04:01:34;;;;;;;;;56.00;43.50;;;;;11.60;69.21;102084.78;5100094;27;45470;-90
2021/11/17 04:04:27;;;;;;;;;55.00;42.25;;;;;11.58;69.32;102084.78;5098464;27;46543;-91
2021/11/17 04:06:58;;;;;;;;;55.00;41.75;;;;;11.58;69.38;102084.78;5087539;27;45247;-94
2021/11/17 04:09:36;;;;;;;;;56.25;43.00;;;;;11.59;69.16;102080.41;5108940;27;45723;-94
2021/11/17 04:12:21;;;;;;;;;63.50;43.00;;;;;11.58;69.25;102082.16;5101429;27;46829;-94
2021/11/17 04:14:58;;;;;;;;;54.50;42.50;;;;;11.59;69.32;102083.03;5105182;27;48240;-93
2021/11/17 04:17:36;;;;;;;;;53.25;39.50;;;;;11.57;69.40;102077.81;5105903;27;45236;-92
2021/11/17 04:20:30;;;;;;;;;57.75;44.50;;;;;11.59;69.25;102097.06;5100885;27;45304;-92
2021/11/17 04:23:05;;;;;;;;;55.50;41.75;;;;;11.60;69.29;102100.59;5088166;27;46996;-92
2021/11/17 04:25:53;;;;;;;;;55.00;40.75;;;;;11.59;69.69;102098.84;5104117;27;48294;-92
2021/11/17 04:28:21;;;;;;;;;53.75;40.75;;;;;11.61;69.50;102106.69;5061341;27;45910;-93
2021/11/17 04:31:15;;;;;;;;;57.25;42.50;;;;;11.58;69.45;102103.22;5103209;27;45464;-94
2021/11/17 04:33:47;;;;;;;;;55.75;43.25;;;;;11.61;69.62;102111.97;5091970;27;46221;-89
2021/11/17 04:36:37;;;;;;;;;53.75;40.00;;;;;11.61;69.52;102111.97;5097696;27;47921;-88
2021/11/17 04:39:09;;;;;;;;;53.50;41.75;;;;;11.60;69.40;102111.13;5100766;27;45322;-88
2021/11/17 04:41:47;;;;;;;;;56.25;41.00;;;;;11.63;69.53;102111.06;5101483;27;45344;-88
2021/11/17 04:44:15;;;;;;;;;56.25;42.00;;;;;11.64;69.32;102111.94;5095751;27;45371;-95
2021/11/17 04:46:56;;;;;;;;;59.25;44.25;;;;;11.62;69.75;102111.97;5105979;27;46970;-94
2021/11/17 04:49:45;;;;;;;;;53.00;40.50;;;;;11.63;69.43;102124.22;5084819;27;45477;-92
2021/11/17 04:52:35;;;;;;;;;52.75;39.75;;;;;11.65;69.63;102118.94;5095102;27;45164;-95
2021/11/17 04:55:22;;;;;;;;;53.00;40.75;;;;;11.63;69.82;102110.22;5114450;27;45993;-95
2021/11/17 04:58:00;;;;;;;;;55.00;42.25;;;;;11.65;69.68;102126.84;5130234;27;47392;-94
2021/11/17 05:00:33;;;;;;;;;52.75;40.25;;;;;11.66;69.63;102116.28;5081023;28;45224;-94
2021/11/17 05:03:05;;;;;;;;;55.25;42.25;;;;;11.67;69.69;102114.53;5099345;27;45266;-95
2021/11/17 05:06:01;;;;;;;;;51.50;39.75;;;;;11.68;69.78;102114.50;5101671;27;45891;-93
2021/11/17 05:08:36;;;;;;;;;55.25;39.50;;;;;11.68;69.96;102119.75;5101177;27;45611;-92
2021/11/17 05:11:26;;;;;;;;;50.25;39.25;;;;;11.69;69.77;102116.25;5100336;27;45416;-96
2021/11/17 05:14:15;;;;;;;;;59.25;40.25;;;;;11.70;69.89;102110.06;5080995;27;45235;-94
2021/11/17 05:17:22;;;;;;;;;58.25;42.75;;;;;11.72;69.95;102110.06;5069316;27;46345;-96
2021/11/17 05:20:37;;;;;;;;;44.75;36.50;;;;;11.71;70.13;102110.94;5084077;27;47374;-95
2021/11/17 05:23:34;;;;;;;;;54.00;40.25;;;;;11.73;70.26;102116.19;5088600;27;46415;-95
2021/11/17 05:26:24;;;;;;;;;50.75;40.00;;;;;11.73;70.26;102118.84;5083353;27;45243;-95
2021/11/17 05:28:59;;;;;;;;;47.50;38.50;;;;;11.73;70.20;102117.03;5076181;27;46219;-96
2021/11/17 05:31:55;;;;;;;;;49.25;38.75;;;;;11.75;70.33;102122.31;5105488;27;47305;-94
2021/11/17 05:34:20;;;;;;;;;51.25;41.00;;;;;11.74;70.51;102116.16;5105009;27;45484;-94
2021/11/17 05:36:58;;;;;;;;;45.00;35.33;;;;;11.74;70.24;102112.66;5104850;27;45291;-96
2021/11/17 05:39:59;;;;;;;;;47.50;36.75;;;;;11.75;70.35;102115.28;5089484;27;46602;-95
2021/11/17 05:43:06;;;;;;;;;46.25;35.50;;;;;11.75;70.42;102114.41;5056698;28;47134;-94
2021/11/17 05:45:56;;;;;;;;;48.50;36.75;;;;;11.75;70.52;102114.41;5121938;27;45792;-93
2021/11/17 05:48:33;;;;;;;;;48.75;36.00;;;;;11.76;70.69;102116.13;5084267;27;45275;-91
2021/11/17 05:51:21;;;;;;;;;49.75;39.75;;;;;11.77;70.62;102108.22;5083755;27;45860;-91
2021/11/17 05:54:12;;;;;;;;;55.50;39.75;;;;;11.78;70.68;102109.06;5125064;27;48409;-94
2021/11/17 05:57:06;;;;;;;;;60.50;45.00;;;;;11.79;70.77;102118.72;5092740;27;45703;-92
2021/11/17 05:59:47;;;;;;;;;57.75;44.00;;;;;11.78;70.95;102106.44;5097480;27;45348;-92
2021/11/17 06:02:18;;;;;;;;;49.25;37.25;;;;;11.78;70.68;102107.31;5081294;27;46240;-93
2021/11/17 06:04:43;;;;;;;;;49.75;38.50;;;;;11.79;70.96;102105.56;5098739;27;47293;-95
2021/11/17 06:07:09;;;;;;;;;52.00;40.33;;;;;11.78;70.79;102104.69;5095690;27;45333;-90
2021/11/17 06:09:34;;;;;;;;;52.33;40.00;;;;;11.78;71.01;102103.81;5100768;27;45312;-89
2021/11/17 06:12:08;;;;;;;;;50.00;39.67;;;;;11.79;70.89;102097.66;5117430;27;45439;-88
2021/11/17 06:14:42;;;;;;;;;51.50;41.25;;;;;11.80;70.59;102104.69;5100910;27;45412;-90
2021/11/17 06:17:13;;;;;;;;;50.75;38.00;;;;;11.79;70.97;102103.78;5101084;27;45443;-90
2021/11/17 06:19:42;;;;;;;;;51.00;38.75;;;;;11.80;71.08;102094.13;5104157;27;45276;-95
2021/11/17 06:22:10;;;;;;;;;52.00;38.50;;;;;11.81;71.18;102087.97;5098417;27;46134;-89
2021/11/17 06:24:37;;;;;;;;;46.00;36.75;;;;;11.80;70.94;102091.50;5101442;27;45686;-89
2021/11/17 06:27:06;;;;;;;;;51.00;40.25;;;;;11.82;71.14;102090.59;5087823;27;46426;-89
2021/11/17 06:29:39;;;;;;;;;55.25;41.25;;;;;11.83;70.94;102096.69;5095842;27;45394;-89
2021/11/17 06:32:07;;;;;;;;;49.50;40.00;;;;;11.82;71.07;102093.22;5100782;27;45423;-89
2021/11/17 06:34:49;;;;;;;;;53.25;38.00;;;;;11.84;70.98;102090.53;5100114;27;45573;-90
2021/11/17 06:37:18;;;;;;;;;50.25;39.50;;;;;11.85;71.10;102097.56;5095833;27;45397;-89
2021/11/17 06:39:46;;;;;;;;;49.75;40.00;;;;;11.85;71.06;102091.41;5096570;27;46880;-88
2021/11/17 06:42:19;;;;;;;;;48.00;38.00;;;;;11.84;71.22;102093.19;5098297;27;46069;-89
2021/11/17 06:44:45;;;;;;;;;52.50;38.50;;;;;11.86;71.25;102098.41;5094910;27;46130;-91
2021/11/17 06:47:12;;;;;;;;;49.75;36.00;;;;;11.84;71.23;102101.09;5100473;27;45913;-93
2021/11/17 06:49:37;;;;;;;;;47.00;36.75;;;;;11.89;71.19;102108.91;5097197;27;45559;-89
2021/11/17 06:52:04;;;;;;;;;43.00;35.00;;;;;11.86;71.06;102107.19;5094107;27;45391;-89
2021/11/17 06:54:30;;;;;;;;;46.25;37.25;;;;;11.88;71.33;102115.06;5094143;27;46969;-90
2021/11/17 06:56:56;;;;;;;;;45.50;33.50;;;;;11.88;71.37;102115.94;5099751;27;45417;-90
2021/11/17 06:59:21;;;;;;;;;34.75;29.50;;;;;11.90;71.24;102126.47;5097462;27;45451;-90
2021/11/17 07:01:46;;;;;;;;;38.75;32.50;;;;;11.90;71.35;102129.94;5099716;27;45485;-90
2021/11/17 07:04:12;;;;;;;;;42.50;30.50;;;;;11.90;71.00;102127.31;5095789;27;45450;-90
2021/11/17 07:06:38;;;;;;;;;44.50;33.00;;;;;11.92;71.45;102136.09;5094813;27;45427;-90
2021/11/17 07:09:05;;;;;;;;;47.50;36.75;;;;;11.93;71.25;102134.31;5091336;27;45416;-91
2021/11/17 07:11:37;;;;;;;;;39.75;31.75;;;;;11.92;71.45;102141.34;5097289;27;46077;-94
2021/11/17 07:14:08;;;;;;;;;46.50;36.00;;;;;11.93;71.24;102147.47;5094106;27;46233;-88
2021/11/17 07:16:35;;;;;;;;;41.25;31.25;;;;;11.93;71.32;102158.00;5098605;27;45436;-93
2021/11/17 07:19:02;;;;;;;;;45.50;35.00;;;;;11.92;71.24;102158.94;5090914;27;45577;-92
2021/11/17 07:21:28;;;;;;;;;45.75;34.00;;;;;11.92;71.11;102164.19;5096335;27;46264;-91
2021/11/17 07:23:53;;;;;;;;;43.25;33.75;;;;;11.97;71.31;102174.66;5099858;27;45492;-91
2021/11/17 07:26:18;;;;;;;;;56.00;40.50;;;;;11.95;71.19;102173.81;5098115;27;45542;-91
2021/11/17 07:28:44;;;;;;;;;48.25;39.50;;;;;11.96;71.11;102178.19;5100152;27;45298;-91
2021/11/17 07:31:09;;;;;;;;;44.25;35.75;;;;;11.98;71.05;102182.53;5098106;27;45861;-90
2021/11/17 07:33:35;;;;;;;;;41.00;34.00;;;;;11.96;70.98;102181.69;5086271;27;45899;-90
2021/11/17 07:36:00;;;;;;;;;39.00;33.25;;;;;11.95;71.06;102179.94;5090384;27;45445;-91
2021/11/17 07:38:26;;;;;;;;;46.25;35.50;;;;;11.99;71.04;102191.31;5094961;27;45353;-90
2021/11/17 07:40:52;;;;;;;;;38.25;32.00;;;;;12.02;71.25;102194.78;5102372;27;46228;-91
2021/11/17 07:43:20;;;;;;;;;42.50;33.00;;;;;12.03;71.14;102200.91;5100974;27;47281;-90
2021/11/17 07:45:45;;;;;;;;;37.50;32.00;;;;;12.05;71.15;102207.00;5098775;27;45192;-90
2021/11/17 07:48:13;;;;;;;;;44.25;31.25;;;;;12.06;71.31;102206.13;5098931;27;45292;-89
2021/11/17 07:50:40;;;;;;;;;40.00;32.00;;;;;12.07;71.49;102204.38;5098293;27;46175;-90
2021/11/17 07:53:06;;;;;;;;;45.00;33.50;;;;;12.07;71.14;102204.38;5103102;27;46047;-91
2021/11/17 07:55:31;;;;;;;;;43.25;32.25;;;;;12.09;71.38;102205.22;5107196;27;45434;-90
2021/11/17 07:57:57;;;;;;;;;41.00;33.25;;;;;12.11;71.32;102208.69;5098926;27;45363;-90
2021/11/17 08:00:27;;;;;;;;;40.25;32.75;;;;;12.12;71.29;102208.66;5098898;27;45778;-89
2021/11/17 08:02:52;;;;;;;;;46.25;35.00;;;;;12.10;71.55;102206.97;5100068;27;46264;-88
2021/11/17 08:05:20;;;;;;;;;43.50;33.00;;;;;12.11;71.36;102206.94;5107908;27;45455;-89
2021/11/17 08:07:46;;;;;;;;;44.25;31.75;;;;;12.12;71.45;102213.94;5113687;27;45478;-89
2021/11/17 08:10:19;;;;;;;;;38.00;31.50;;;;;12.15;71.34;102216.56;5099853;27;45388;-89
2021/11/17 08:12:44;;;;;;;;;44.50;34.25;;;;;12.17;71.61;102216.56;5098710;27;47167;-89
2021/11/17 08:15:11;;;;;;;;;42.00;32.00;;;;;12.18;71.54;102209.50;5105345;27;45496;-89
2021/11/17 08:17:38;;;;;;;;;48.25;36.25;;;;;12.20;71.59;102213.00;5101661;27;45251;-89
2021/11/17 08:20:05;;;;;;;;;51.25;40.00;;;;;12.20;71.45;102215.63;5098728;27;45984;-89
2021/11/17 08:22:31;;;;;;;;;35.50;32.50;;;;;12.25;71.35;102213.75;5098811;27;47275;-90
2021/11/17 08:24:56;;;;;;;;;48.75;36.00;;;;;12.25;71.47;102216.41;5088870;27;45239;-89
2021/11/17 08:27:21;;;;;;;;;47.75;36.50;;;;;12.29;71.58;102214.59;5090217;27;45412;-90
2021/11/17 08:29:49;;;;;;;;;43.25;30.75;;;;;12.32;71.45;102218.03;5096982;27;46504;-90
2021/11/17 08:32:15;;;;;;;;;42.75;31.50;;;;;12.34;71.34;102228.59;5097495;27;47990;-88
2021/11/17 08:34:41;;;;;;;;;48.75;35.75;;;;;12.35;71.39;102235.56;5096065;27;45894;-89
2021/11/17 08:37:08;;;;;;;;;43.00;33.25;;;;;12.35;71.48;102220.63;5089062;27;45540;-89
2021/11/17 08:39:34;;;;;;;;;40.50;32.75;;;;;12.39;71.75;102229.38;5096953;27;46439;-90
2021/11/17 08:41:59;;;;;;;;;43.50;35.25;;;;;12.38;71.29;102231.13;5099348;27;46185;-90
2021/11/17 08:44:24;;;;;;;;;41.00;32.50;;;;;12.40;71.12;102238.13;5098583;27;45352;-89
2021/11/17 08:46:50;;;;;;;;;44.00;35.50;;;;;12.41;71.34;102242.53;5095059;27;45173;-90
2021/11/17 08:49:15;;;;;;;;;46.50;34.75;;;;;12.40;71.52;102233.75;5091615;27;46894;-88
2021/11/17 08:51:42;;;;;;;;;45.50;36.50;;;;;12.44;71.34;102234.56;5101696;27;46212;-90
2021/11/17 08:54:08;;;;;;;;;38.25;32.50;;;;;12.45;71.32;102237.16;5083987;27;45936;-90
2021/11/17 08:56:35;;;;;;;;;42.00;31.25;;;;;12.47;71.55;102242.44;5094613;27;45382;-90
2021/11/17 08:59:02;;;;;;;;;44.50;34.00;;;;;12.51;71.47;102241.47;5104082;27;46303;-90
2021/11/17 09:01:29;;;;;;;;;40.50;32.00;;;;;12.55;71.35;102239.66;5100304;27;48176;-90
2021/11/17 09:03:55;;;;;;;;;41.75;33.00;;;;;12.57;71.39;102243.13;5110320;27;45893;-90
2021/11/17 09:06:20;;;;;;;;;38.75;32.00;;;;;12.62;71.69;102250.97;5102964;27;45429;-89
2021/11/17 09:08:46;;;;;;;;;45.25;32.50;;;;;12.64;71.09;102250.06;5102867;27;46238;-90
2021/11/17 09:11:16;;;;;;;;;42.75;33.25;;;;;12.65;71.30;102254.44;5099467;27;45341;-90
2021/11/17 09:13:44;;;;;;;;;50.00;36.75;;;;;12.64;70.80;102241.28;5105408;27;45988;-89
2021/11/17 09:16:10;;;;;;;;;43.50;32.75;;;;;12.65;71.30;102248.28;5111281;27;45308;-90
2021/11/17 09:18:37;;;;;;;;;43.25;34.25;;;;;12.68;71.31;102249.09;5103562;27;45588;-90
2021/11/17 09:21:06;;;;;;;;;42.25;35.25;;;;;12.70;71.03;102252.56;5103776;27;48406;-89
2021/11/17 09:23:31;;;;;;;;;47.50;35.50;;;;;12.71;71.04;102256.09;5097863;27;45707;-90
2021/11/17 09:25:59;;;;;;;;;43.25;34.50;;;;;12.73;71.15;102254.28;5094508;27;45526;-90
2021/11/17 09:28:29;;;;;;;;;40.50;33.00;;;;;12.75;71.39;102260.41;5091863;27;45506;-90
2021/11/17 09:30:55;;;;;;;;;42.50;34.00;;;;;12.78;71.29;102260.38;5098653;27;46275;-91
2021/11/17 09:33:23;;;;;;;;;48.25;35.25;;;;;12.81;71.36;102264.72;5097663;27;45374;-90
2021/11/17 09:35:50;;;;;;;;;48.50;34.75;;;;;12.83;71.33;102262.91;5096925;27;45468;-91
2021/11/17 09:38:17;;;;;;;;;47.50;36.00;;;;;12.86;71.56;102267.28;5101508;27;47355;-90
2021/11/17 09:40:56;;;;;;;;;48.50;34.75;;;;;12.88;71.40;102276.91;5087924;27;48313;-89
2021/11/17 09:43:31;;;;;;;;;44.50;34.75;;;;;12.90;71.43;102277.75;5101458;27;45837;-90
2021/11/17 09:45:59;;;;;;;;;48.00;35.00;;;;;12.93;70.90;102275.06;5102410;27;45332;-90
2021/11/17 09:48:35;;;;;;;;;44.25;34.25;;;;;12.96;71.39;102276.75;5096418;27;45438;-89
2021/11/17 09:51:11;;;;;;;;;42.25;32.25;;;;;13.00;71.42;102286.34;5099654;27;45549;-90
2021/11/17 09:53:58;;;;;;;;;45.25;34.25;;;;;13.02;71.18;102295.13;5093948;27;45969;-89
2021/11/17 09:56:38;;;;;;;;;38.75;32.75;;;;;13.05;71.35;102295.06;5097787;27;45458;-90
2021/11/17 09:59:10;;;;;;;;;43.00;34.00;;;;;13.07;71.30;102295.03;5102080;27;45229;-90
2021/11/17 10:01:40;;;;;;;;;44.00;32.25;;;;;13.09;70.80;102295.88;5091605;27;47306;-90
2021/11/17 10:04:15;;;;;;;;;45.00;32.75;;;;;13.13;71.59;102300.22;5090300;27;45472;-90
2021/11/17 10:07:45;;;;;;;;;45.50;35.00;;;;;13.15;71.51;102301.03;5111298;27;45504;-90
2021/11/17 10:15:04;;;;;;;;;35.75;31.50;;;;;13.25;71.39;102299.09;5100802;27;45297;-90
2021/11/17 10:17:43;;;;;;;;;38.00;31.00;;;;;13.30;71.29;102291.09;5087231;27;45441;-89
2021/11/17 10:20:29;;;;;;;;;41.00;33.00;;;;;13.35;71.35;102301.56;5108402;27;47177;-90
2021/11/17 10:23:06;;;;;;;;;39.75;32.00;;;;;13.38;71.21;102298.88;5083745;27;46386;-89
2021/11/17 10:25:46;;;;;;;;;41.75;34.25;;;;;13.42;71.17;102292.59;5088799;27;46022;-89
2021/11/17 10:28:13;;;;;;;;;44.50;33.00;;;;;13.45;70.98;102300.47;5103235;27;45336;-89
2021/11/17 10:31:01;;;;;;;;;38.25;30.75;;;;;13.48;71.10;102302.19;5083743;27;45444;-86
2021/11/17 10:33:54;;;;;;;;;42.75;33.00;;;;;13.53;71.05;102305.59;5098356;27;47398;-89
2021/11/17 10:36:23;;;;;;;;;42.00;33.25;;;;;13.56;70.87;102302.00;5115192;27;45800;-88
2021/11/17 10:39:08;;;;;;;;;43.25;35.25;;;;;13.57;70.61;102298.50;5091128;27;45511;-89
2021/11/17 10:41:36;;;;;;;;;41.25;33.00;;;;;13.60;70.44;102301.97;5100414;27;45503;-89
2021/11/17 10:44:07;;;;;;;;;42.00;32.25;;;;;13.64;70.46;102297.47;5083214;27;45493;-89
2021/11/17 10:46:49;;;;;;;;;37.50;34.00;;;;;13.70;70.49;102304.41;5099859;27;45241;-89
2021/11/17 10:49:23;;;;;;;;;37.50;34.00;;;;;13.75;70.28;102299.03;5097876;27;45267;-89
2021/11/17 10:51:54;;;;;;;;;41.50;32.75;;;;;13.74;70.38;102290.22;5088773;27;45528;-89
2021/11/17 10:54:26;;;;;;;;;37.00;33.00;;;;;13.83;70.26;102294.44;5093574;27;47659;-89
2021/11/17 10:57:08;;;;;;;;;37.75;34.25;;;;;13.88;70.35;102295.22;5093212;27;45658;-89
2021/11/17 10:59:33;;;;;;;;;37.75;32.50;;;;;13.91;70.36;102295.16;5099971;27;45476;-92
2021/11/17 11:01:59;;;;;;;;;36.25;33.00;;;;;13.94;69.94;102296.84;5091803;27;47366;-89
2021/11/17 11:04:30;;;;;;;;;39.50;34.75;;;;;13.96;70.32;102292.41;5088008;27;45460;-89
2021/11/17 11:07:05;;;;;;;;;47.50;36.25;;;;;13.99;69.92;102291.47;5099532;27;45717;-89
2021/11/17 11:09:33;;;;;;;;;37.25;34.00;;;;;14.01;70.04;102297.56;5098032;27;45183;-89
2021/11/17 11:12:01;;;;;;;;;36.50;31.50;;;;;14.02;69.47;102289.63;5090224;27;45779;-88
2021/11/17 11:14:26;;;;;;;;;39.75;30.75;;;;;14.04;69.42;102286.94;5093666;27;48323;-89
2021/11/17 11:17:11;;;;;;;;;42.00;36.75;;;;;14.05;69.29;102291.34;5115951;27;45303;-89
2021/11/17 11:19:37;;;;;;;;;31.25;30.25;;;;;14.02;69.03;102291.41;5090338;27;45435;-91
2021/11/17 11:22:08;;;;;;;;;29.50;25.75;;;;;14.01;68.97;102300.22;5091057;27;45481;-90
2021/11/17 11:24:40;;;;;;;;;36.50;30.00;;;;;13.99;68.75;102283.53;5108406;27;46943;-92
2021/11/17 11:27:06;;;;;;;;;32.00;26.50;;;;;14.02;68.85;102286.09;5094952;27;45561;-92
2021/11/17 11:29:33;;;;;;;;;35.00;31.25;;;;;14.02;68.54;102284.34;5093000;27;45302;-91
2021/11/17 11:32:25;;;;;;;;;33.00;29.00;;;;;14.03;68.52;102277.25;5098558;27;45542;-93
2021/11/17 11:35:00;;;;;;;;;30.75;26.25;;;;;14.00;68.42;102283.47;5089515;27;47046;-94
2021/11/17 11:37:25;;;;;;;;;32.75;26.25;;;;;13.99;67.96;102280.88;5098888;27;45231;-92
2021/11/17 11:39:55;;;;;;;;;39.75;24.00;;;;;13.97;67.93;102278.28;5111395;27;45314;-92
2021/11/17 11:42:26;;;;;;;;;26.00;23.50;;;;;13.92;67.83;102275.75;5100520;27;45437;-92
2021/11/17 11:45:26;;;;;;;;;24.25;20.00;;;;;13.92;68.05;102270.47;5100688;27;45489;-91
2021/11/17 11:48:03;;;;;;;;;23.25;19.75;;;;;13.93;67.74;102269.53;5086948;27;45904;-92
2021/11/17 11:50:35;;;;;;;;;20.00;19.25;;;;;13.97;67.85;102282.69;5099563;27;45478;-92
2021/11/17 11:53:06;;;;;;;;;28.50;23.00;;;;;13.95;67.72;102267.72;5099803;27;45583;-92
2021/11/17 11:56:43;;;;;;;;;29.50;22.75;;;;;13.99;67.83;102278.25;5098487;27;47290;-92
2021/11/17 11:59:13;;;;;;;;;25.75;22.75;;;;;14.02;68.07;102280.81;5028879;28;45894;-95
2021/11/17 12:01:38;;;;;;;;;24.75;21.00;;;;;14.02;68.12;102275.53;5041013;28;45301;-92
2021/11/17 12:04:08;;;;;;;;;23.75;20.50;;;;;14.09;67.85;102281.53;5065751;27;46826;-92
2021/11/17 12:07:02;;;;;;;;;23.00;18.75;;;;;14.14;67.58;102272.63;5095086;27;48072;-93
2021/11/17 12:09:35;;;;;;;;;22.75;21.00;;;;;14.18;67.51;102276.03;5100424;27;45833;-93
2021/11/17 12:12:19;;;;;;;;;22.50;17.75;;;;;14.20;67.25;102274.22;5086460;27;45245;-95
2021/11/17 12:14:51;;;;;;;;;23.75;21.00;;;;;14.20;67.38;102273.38;5099374;27;46937;-93
2021/11/17 12:17:22;;;;;;;;;24.50;22.00;;;;;14.23;67.17;102268.00;5102381;27;46434;-93
2021/11/17 12:19:53;;;;;;;;;22.75;22.50;;;;;14.24;66.91;102264.44;5087597;27;45380;-93
2021/11/17 12:22:36;;;;;;;;;24.25;23.25;;;;;14.27;66.84;102265.22;5100682;27;45231;-93
2021/11/17 12:25:24;;;;;;;;;22.75;19.50;;;;;14.31;67.42;102255.47;5098910;27;46102;-94
2021/11/17 12:27:58;;;;;;;;;30.50;21.50;;;;;14.34;67.49;102258.03;5098865;27;48371;-92
2021/11/17 12:30:29;;;;;;;;;25.00;23.00;;;;;14.37;67.24;102250.00;5099055;27;45282;-93
2021/11/17 12:33:01;;;;;;;;;23.50;18.75;;;;;14.39;66.59;102253.50;5112534;27;45347;-93
2021/11/17 12:35:36;;;;;;;;;18.50;16.00;;;;;14.42;66.02;102268.41;5102754;27;46069;-93
2021/11/17 12:38:06;;;;;;;;;18.50;16.50;;;;;14.43;66.50;102274.56;5090915;27;47264;-95
2021/11/17 12:40:48;;;;;;;;;17.00;16.50;;;;;14.46;66.72;102269.22;5102271;27;45649;-95
2021/11/17 12:43:36;;;;;;;;;18.25;17.00;;;;;14.45;66.74;102267.47;5102779;27;45369;-93
2021/11/17 12:46:41;;;;;;;;;18.25;15.25;;;;;14.50;66.34;102269.09;5102481;27;47123;-93
2021/11/17 12:49:28;;;;;;;;;20.50;18.50;;;;;14.52;66.29;102267.28;5090815;27;46598;-93
2021/11/17 12:52:05;;;;;;;;;19.75;15.75;;;;;14.57;66.16;102263.66;5102723;27;45387;-94
2021/11/17 12:54:45;;;;;;;;;18.25;16.00;;;;;14.58;66.11;102266.25;5099183;27;45255;-93
2021/11/17 12:57:17;;;;;;;;;18.00;15.25;;;;;14.61;66.19;102268.84;5090086;27;46533;-94
2021/11/17 12:59:50;;;;;;;;;19.25;16.75;;;;;14.69;66.23;102263.31;5103587;27;45464;-95
2021/11/17 13:02:21;;;;;;;;;23.50;18.25;;;;;14.77;66.38;102268.41;5103933;27;45637;-95
2021/11/17 13:04:53;;;;;;;;;22.50;21.00;;;;;14.83;65.99;102267.41;5105661;27;45476;-94
2021/11/17 13:08:07;;;;;;;;;26.25;21.00;;;;;14.89;65.98;102261.97;5103800;27;45423;-94
2021/11/17 13:10:40;;;;;;;;;24.50;22.25;;;;;14.96;66.11;102267.97;5065614;27;47456;-93
2021/11/17 13:13:25;;;;;;;;;18.25;15.00;;;;;15.00;65.88;102255.50;5102192;27;45256;-94
2021/11/17 13:15:51;;;;;;;;;27.50;19.00;;;;;15.00;64.82;102256.38;5102558;27;45261;-94
2021/11/17 13:18:45;;;;;;;;;22.50;17.75;;;;;15.01;65.37;102260.78;5115805;27;46991;-94
2021/11/17 13:21:17;;;;;;;;;19.75;17.25;;;;;15.06;65.58;102253.56;5079349;27;47108;-94
2021/11/17 13:24:04;;;;;;;;;13.75;10.50;;;;;15.09;65.00;102251.75;5107245;27;45310;-93
2021/11/17 13:26:42;;;;;;;;;15.00;13.75;;;;;15.14;65.04;102255.13;5091631;27;45402;-95
2021/11/17 13:29:26;;;;;;;;;16.25;14.25;;;;;15.17;64.81;102269.16;5101989;27;45964;-95
2021/11/17 13:32:00;;;;;;;;;11.25;10.75;;;;;15.18;65.03;102267.38;5102213;27;47177;-92
2021/11/17 13:34:41;;;;;;;;;15.75;14.75;;;;;15.19;65.05;102269.09;5113517;27;46429;-93
2021/11/17 13:37:32;;;;;;;;;21.25;17.00;;;;;15.20;64.91;102265.56;5105188;27;45326;-94
2021/11/17 13:40:01;;;;;;;;;17.25;15.25;;;;;15.17;64.92;102268.28;5106627;27;47115;-94
2021/11/17 13:42:28;;;;;;;;;14.75;14.75;;;;;15.20;64.91;102278.78;5102036;27;47045;-94
2021/11/17 13:45:03;;;;;;;;;10.00;9.25;;;;;15.17;63.88;102270.94;5099223;27;46530;-94
2021/11/17 13:47:30;;;;;;;;;12.00;9.25;;;;;15.14;64.60;102276.31;5103127;27;45235;-95
2021/11/17 13:49:58;;;;;;;;;13.25;9.75;;;;;15.09;64.54;102279.09;5104712;27;46013;-95
2021/11/17 13:52:27;;;;;;;;;7.25;7.25;;;;;15.10;64.49;102287.91;5101911;27;47130;-93
2021/11/17 13:54:53;;;;;;;;;8.75;7.75;;;;;15.09;64.63;102289.66;5103074;27;46235;-93
2021/11/17 13:57:20;;;;;;;;;11.00;7.50;;;;;15.09;64.07;102288.81;5112355;27;45238;-93
2021/11/17 13:59:46;;;;;;;;;9.75;9.50;;;;;15.06;64.31;102287.97;5101473;27;47294;-94
2021/11/17 14:02:13;;;;;;;;;6.00;6.00;;;;;15.07;64.32;102287.06;5101419;27;47470;-94
2021/11/17 14:04:38;;;;;;;;;5.75;5.75;;;;;15.09;64.47;102284.38;5101619;27;45762;-93
2021/11/17 14:07:05;;;;;;;;;5.00;5.00;;;;;15.11;64.52;102287.00;5101668;27;46647;-94
2021/11/17 14:09:30;;;;;;;;;9.00;7.00;;;;;15.11;65.07;102287.00;5112412;27;46185;-94
2021/11/17 14:11:58;;;;;;;;;7.75;7.00;;;;;15.12;65.58;102291.38;5116100;27;45170;-94
2021/11/17 14:14:23;;;;;;;;;10.50;8.75;;;;;15.12;64.96;102294.00;5101535;27;45774;-95
2021/11/17 14:16:49;;;;;;;;;6.75;5.00;;;;;15.12;64.48;102294.00;5098473;27;45232;-93
2021/11/17 14:19:15;;;;;;;;;5.00;5.00;;;;;15.12;64.15;102288.72;5112510;27;45914;-93